createdAt,value
2023-09-24T00:01:07.382Z,7.50
2023-09-24T00:03:36.568Z,7.48
2023-09-24T00:06:06.870Z,7.52
2023-09-24T00:08:34.525Z,7.54
2023-09-24T00:11:03.793Z,7.53
2023-09-24T00:13:35.110Z,7.49
2023-09-24T00:16:05.980Z,7.50
2023-09-24T00:18:33.974Z,7.47
2023-09-24T00:21:02.982Z,7.50
2023-09-24T00:23:30.816Z,7.52
2023-09-24T00:25:58.475Z,7.50
2023-09-24T00:28:26.235Z,7.43
2023-09-24T00:30:56.442Z,7.45
2023-09-24T00:33:25.181Z,7.40
2023-09-24T00:35:53.226Z,7.39
2023-09-24T00:38:22.210Z,7.36
2023-09-24T00:40:49.902Z,7.35
2023-09-24T00:43:28.442Z,7.34
2023-09-24T00:45:56.802Z,7.35
2023-09-24T00:48:26.231Z,7.34
2023-09-24T00:50:54.548Z,7.32
2023-09-24T00:53:23.584Z,7.32
2023-09-24T00:55:51.334Z,7.32
2023-09-24T00:58:19.305Z,7.21
2023-09-24T01:00:47.452Z,7.22
2023-09-24T01:03:16.267Z,7.10
2023-09-24T01:05:44.687Z,7.14
2023-09-24T01:08:12.325Z,7.06
2023-09-24T01:10:41.270Z,7.02
2023-09-24T01:13:08.932Z,7.04
2023-09-24T01:15:36.666Z,6.96
2023-09-24T01:18:06.711Z,6.91
2023-09-24T01:20:34.476Z,6.95
2023-09-24T01:23:05.304Z,6.90
2023-09-24T01:25:36.097Z,6.89
2023-09-24T01:28:05.197Z,6.84
2023-09-24T01:30:33.053Z,6.84
2023-09-24T01:33:00.906Z,6.79
2023-09-24T01:35:29.226Z,6.77
2023-09-24T01:37:58.565Z,6.78
2023-09-24T01:40:29.112Z,6.76
2023-09-24T01:42:58.977Z,6.72
2023-09-24T01:45:26.812Z,6.75
2023-09-24T01:47:55.997Z,6.64
2023-09-24T01:50:28.038Z,6.66
2023-09-24T01:52:58.733Z,6.64
2023-09-24T01:55:28.215Z,6.66
2023-09-24T01:57:56.518Z,6.64
2023-09-24T02:00:24.056Z,6.62
2023-09-24T02:02:52.310Z,6.60
2023-09-24T02:05:20.633Z,6.60
2023-09-24T02:07:49.398Z,6.55
2023-09-24T02:10:19.701Z,6.51
2023-09-24T02:12:49.092Z,6.49
2023-09-24T02:15:19.336Z,6.52
2023-09-24T02:17:49.684Z,6.47
2023-09-24T02:20:26.660Z,6.43
2023-09-24T02:22:58.170Z,6.34
2023-09-24T02:25:27.009Z,6.35
2023-09-24T02:27:56.622Z,6.41
2023-09-24T02:30:28.724Z,6.44
2023-09-24T02:32:59.112Z,6.43
2023-09-24T02:35:27.480Z,6.44
2023-09-24T02:37:55.538Z,6.40
2023-09-24T02:40:24.984Z,6.38
2023-09-24T02:42:54.442Z,6.35
2023-09-24T02:45:24.039Z,6.31
2023-09-24T02:47:52.961Z,6.29
2023-09-24T02:50:22.577Z,6.27
2023-09-24T02:52:51.186Z,6.22
2023-09-24T02:55:20.686Z,6.16
2023-09-24T02:57:49.550Z,6.18
2023-09-24T03:00:19.375Z,6.19
2023-09-24T03:02:49.402Z,6.21
2023-09-24T03:05:21.773Z,6.23
2023-09-24T03:07:51.177Z,6.15
2023-09-24T03:10:19.812Z,6.11
2023-09-24T03:12:48.207Z,6.00
2023-09-24T03:15:16.224Z,5.96
2023-09-24T03:17:47.635Z,5.96
2023-09-24T03:20:18.251Z,5.92
2023-09-24T03:22:48.156Z,5.88
2023-09-24T03:25:18.660Z,5.81
2023-09-24T03:27:47.046Z,5.86
2023-09-24T03:30:18.676Z,5.85
2023-09-24T03:32:47.717Z,5.80
2023-09-24T03:35:20.255Z,5.78
2023-09-24T03:37:48.328Z,5.83
2023-09-24T03:40:18.172Z,5.83
2023-09-24T03:42:46.798Z,5.80
2023-09-24T03:45:17.011Z,5.82
2023-09-24T03:47:45.323Z,5.83
2023-09-24T03:50:15.020Z,5.80
2023-09-24T03:52:44.572Z,5.77
2023-09-24T03:55:12.292Z,5.75
2023-09-24T03:57:40.312Z,5.74
2023-09-24T04:00:12.334Z,5.78
2023-09-24T04:02:41.391Z,5.72
2023-09-24T04:05:10.864Z,5.71
2023-09-24T04:07:39.562Z,5.64
2023-09-24T04:10:10.000Z,5.59
2023-09-24T04:12:37.753Z,5.60
2023-09-24T04:15:07.336Z,5.57
2023-09-24T04:17:34.982Z,5.62
2023-09-24T04:20:04.506Z,5.57
2023-09-24T04:22:32.841Z,5.60
2023-09-24T04:25:00.393Z,5.59
2023-09-24T04:27:29.297Z,5.54
2023-09-24T04:29:57.346Z,5.55
2023-09-24T04:32:24.930Z,5.53
2023-09-24T04:34:55.954Z,5.52
2023-09-24T04:37:23.950Z,5.50
2023-09-24T04:39:51.518Z,5.48
2023-09-24T04:42:19.236Z,5.54
2023-09-24T04:44:48.315Z,5.55
2023-09-24T04:47:15.929Z,5.52
2023-09-24T04:49:43.718Z,5.50
2023-09-24T04:52:11.310Z,5.46
2023-09-24T04:54:38.911Z,5.42
2023-09-24T04:57:09.087Z,5.39
2023-09-24T04:59:36.804Z,5.38
2023-09-24T05:02:06.236Z,5.35
2023-09-24T05:04:34.593Z,5.35
2023-09-24T05:07:02.454Z,5.34
2023-09-24T05:09:31.357Z,5.22
2023-09-24T05:11:59.224Z,5.20
2023-09-24T05:14:26.963Z,5.18
2023-09-24T05:16:55.445Z,5.02
2023-09-24T05:19:24.593Z,5.07
2023-09-24T05:21:52.299Z,5.22
2023-09-24T05:24:20.041Z,5.29
2023-09-24T05:26:47.722Z,5.41
2023-09-24T05:29:15.484Z,5.50
2023-09-24T05:31:43.131Z,5.54
2023-09-24T05:34:11.231Z,5.53
2023-09-24T05:36:40.309Z,5.58
2023-09-24T05:39:10.294Z,5.70
2023-09-24T05:41:38.378Z,5.75
2023-09-24T05:44:06.993Z,5.61
2023-09-24T05:46:35.785Z,5.65
2023-09-24T05:49:06.489Z,5.65
2023-09-24T05:51:34.493Z,5.72
2023-09-24T05:54:03.939Z,5.77
2023-09-24T05:56:31.595Z,5.86
2023-09-24T05:58:59.268Z,5.80
2023-09-24T06:01:26.869Z,5.89
2023-09-24T06:03:54.841Z,5.89
2023-09-24T06:06:22.574Z,5.93
2023-09-24T06:08:50.304Z,5.96
2023-09-24T06:11:19.612Z,5.92
2023-09-24T06:13:47.564Z,6.08
2023-09-24T06:16:15.655Z,6.08
2023-09-24T06:18:43.373Z,6.11
2023-09-24T06:21:17.833Z,6.18
2023-09-24T06:23:45.761Z,6.26
2023-09-24T06:26:14.860Z,6.36
2023-09-24T06:28:52.876Z,6.42
2023-09-24T06:31:28.114Z,6.54
2023-09-24T06:33:56.206Z,6.59
2023-09-24T06:36:23.962Z,6.70
2023-09-24T06:38:52.354Z,6.79
2023-09-24T06:41:20.103Z,6.86
2023-09-24T06:43:49.295Z,6.90
2023-09-24T06:46:18.757Z,7.08
2023-09-24T06:48:46.483Z,7.25
2023-09-24T06:51:14.298Z,7.34
2023-09-24T06:53:42.066Z,7.46
2023-09-24T06:56:09.669Z,7.50
2023-09-24T06:58:38.178Z,7.42
2023-09-24T07:01:07.369Z,7.53
2023-09-24T07:03:35.299Z,7.61
2023-09-24T07:06:05.233Z,7.82
2023-09-24T07:08:34.650Z,8.01
2023-09-24T07:11:24.794Z,8.04
2023-09-24T07:13:52.629Z,7.85
2023-09-24T07:16:24.854Z,7.87
2023-09-24T07:18:53.244Z,7.87
2023-09-24T07:21:33.558Z,7.88
2023-09-24T07:24:04.025Z,7.92
2023-09-24T07:26:32.290Z,8.02
2023-09-24T07:29:01.154Z,8.20
2023-09-24T07:31:31.408Z,8.39
2023-09-24T07:34:01.285Z,8.61
2023-09-24T07:36:33.025Z,8.60
2023-09-24T07:39:05.142Z,8.44
2023-09-24T07:41:33.182Z,8.46
2023-09-24T07:44:00.738Z,8.48
2023-09-24T07:46:30.038Z,8.57
2023-09-24T07:48:57.683Z,8.84
2023-09-24T07:51:25.293Z,9.07
2023-09-24T07:53:53.399Z,9.36
2023-09-24T07:56:21.057Z,9.45
2023-09-24T07:58:48.651Z,9.59
2023-09-24T08:01:16.509Z,9.68
2023-09-24T08:03:46.736Z,9.84
2023-09-24T08:06:15.203Z,9.91
2023-09-24T08:11:13.357Z,10.06
2023-09-24T08:13:40.936Z,9.97
2023-09-24T08:16:08.800Z,10.13
2023-09-24T08:18:36.654Z,10.35
2023-09-24T08:21:05.729Z,10.52
2023-09-24T08:23:34.038Z,10.52
2023-09-24T08:26:01.614Z,10.71
2023-09-24T08:28:29.191Z,10.76
2023-09-24T08:30:56.856Z,10.84
2023-09-24T08:33:24.502Z,10.77
2023-09-24T08:35:52.131Z,11.08
2023-09-24T08:38:22.263Z,11.22
2023-09-24T08:40:49.858Z,11.36
2023-09-24T08:43:18.189Z,11.47
2023-09-24T08:45:46.388Z,11.64
2023-09-24T08:48:15.724Z,11.89
2023-09-24T08:50:44.575Z,12.06
2023-09-24T08:53:13.293Z,12.07
2023-09-24T08:55:46.269Z,12.14
2023-09-24T08:58:13.933Z,12.33
2023-09-24T09:00:43.477Z,12.52
2023-09-24T09:03:11.346Z,12.52
2023-09-24T09:05:40.185Z,12.60
2023-09-24T09:08:08.731Z,12.63
2023-09-24T09:10:38.686Z,12.68
2023-09-24T09:13:09.947Z,12.68
2023-09-24T09:15:38.216Z,12.78
2023-09-24T09:18:06.339Z,12.86
2023-09-24T09:20:41.473Z,12.92
2023-09-24T09:23:12.385Z,13.12
2023-09-24T09:25:51.357Z,13.21
2023-09-24T09:28:24.238Z,13.18
2023-09-24T09:31:02.721Z,13.37
2023-09-24T09:33:31.950Z,13.36
2023-09-24T09:36:00.019Z,13.56
2023-09-24T09:38:32.138Z,13.78
2023-09-24T09:41:00.862Z,13.91
2023-09-24T09:43:31.822Z,14.08
2023-09-24T09:45:59.795Z,14.15
2023-09-24T09:48:32.164Z,14.23
2023-09-24T09:51:03.720Z,14.34
2023-09-24T09:53:34.780Z,14.42
2023-09-24T09:56:06.774Z,14.40
2023-09-24T09:58:37.377Z,14.59
2023-09-24T10:01:06.446Z,14.62
2023-09-24T10:03:36.178Z,14.48
2023-09-24T10:06:06.039Z,14.58
2023-09-24T10:08:39.770Z,14.63
2023-09-24T10:11:08.014Z,14.57
2023-09-24T10:17:20.534Z,14.73
2023-09-24T10:19:56.486Z,14.62
2023-09-24T10:22:30.507Z,14.70
2023-09-24T10:24:58.565Z,14.76
2023-09-24T10:27:27.768Z,14.95
2023-09-24T10:30:02.570Z,15.05
2023-09-24T10:32:30.864Z,15.25
2023-09-24T10:35:13.459Z,15.33
2023-09-24T10:38:03.854Z,15.40
2023-09-24T10:40:35.426Z,15.18
2023-09-24T10:43:20.060Z,15.08
2023-09-24T10:45:49.908Z,15.08
2023-09-24T10:48:18.695Z,15.08
2023-09-24T10:50:47.708Z,15.21
2023-09-24T10:53:20.433Z,15.22
2023-09-24T10:56:01.517Z,15.09
2023-09-24T10:58:35.802Z,15.23
2023-09-24T11:01:03.529Z,15.34
2023-09-24T11:03:36.081Z,15.37
2023-09-24T11:06:05.649Z,15.27
2023-09-24T11:08:33.429Z,15.47
2023-09-24T11:11:01.075Z,15.51
2023-09-24T11:13:28.751Z,15.62
2023-09-24T11:15:56.617Z,15.75
2023-09-24T11:18:26.580Z,15.75
2023-09-24T11:20:54.920Z,15.88
2023-09-24T11:23:23.989Z,15.68
2023-09-24T11:25:52.925Z,15.77
2023-09-24T11:28:24.578Z,15.50
2023-09-24T11:30:53.305Z,15.83
2023-09-24T11:33:22.748Z,15.88
2023-09-24T11:35:52.096Z,15.95
2023-09-24T11:38:30.421Z,15.83
2023-09-24T11:41:07.679Z,15.91
2023-09-24T11:43:36.549Z,16.03
2023-09-24T11:46:04.927Z,16.01
2023-09-24T11:48:33.484Z,16.19
2023-09-24T11:51:02.840Z,16.18
2023-09-24T11:53:31.950Z,16.26
2023-09-24T11:56:00.880Z,16.30
2023-09-24T11:58:28.990Z,16.38
2023-09-24T12:00:58.353Z,16.53
2023-09-24T12:03:26.345Z,16.71
2023-09-24T12:05:54.203Z,16.67
2023-09-24T12:08:22.220Z,16.72
2023-09-24T12:10:52.394Z,16.77
2023-09-24T12:13:20.693Z,16.70
2023-09-24T12:15:48.755Z,17.06
2023-09-24T12:18:16.681Z,17.27
2023-09-24T12:20:44.755Z,17.55
2023-09-24T12:23:13.381Z,17.87
2023-09-24T12:25:44.101Z,17.89
2023-09-24T12:28:15.260Z,18.17
2023-09-24T12:30:44.302Z,18.03
2023-09-24T12:33:14.803Z,17.85
2023-09-24T12:35:43.539Z,17.91
2023-09-24T12:38:11.659Z,18.59
2023-09-24T12:40:39.512Z,19.78
2023-09-24T12:43:07.345Z,20.39
2023-09-24T12:45:36.346Z,21.30
2023-09-24T12:48:04.475Z,22.23
2023-09-24T12:50:32.507Z,23.88
2023-09-24T12:53:00.195Z,24.95
2023-09-24T12:55:27.806Z,26.01
2023-09-24T12:57:55.478Z,26.73
2023-09-24T13:00:24.220Z,26.61
2023-09-24T13:02:53.434Z,27.56
2023-09-24T13:05:22.683Z,26.17
2023-09-24T13:07:50.355Z,24.72
2023-09-24T13:10:18.244Z,22.58
2023-09-24T13:12:46.587Z,21.56
2023-09-24T13:15:14.683Z,20.50
2023-09-24T13:17:43.281Z,22.23
2023-09-24T13:20:14.692Z,24.36
2023-09-24T13:22:42.467Z,26.39
2023-09-24T13:25:12.819Z,27.59
2023-09-24T13:27:41.808Z,28.81
2023-09-24T13:30:10.245Z,28.74
2023-09-24T13:32:38.362Z,29.50
2023-09-24T13:35:08.655Z,29.55
2023-09-24T13:37:38.925Z,30.79
2023-09-24T13:40:19.247Z,30.18
2023-09-24T13:42:51.565Z,27.99
2023-09-24T13:45:19.244Z,25.38
2023-09-24T13:47:46.903Z,23.95
2023-09-24T13:50:14.687Z,23.10
2023-09-24T13:52:44.990Z,22.48
2023-09-24T13:55:12.793Z,21.81
2023-09-24T13:57:41.367Z,21.06
2023-09-24T14:00:10.182Z,20.52
2023-09-24T14:02:37.919Z,20.18
2023-09-24T14:05:06.480Z,19.56
2023-09-24T14:07:34.120Z,19.22
2023-09-24T14:10:20.872Z,19.05
2023-09-24T14:12:48.499Z,18.92
2023-09-24T14:15:16.402Z,18.79
2023-09-24T14:17:48.258Z,18.73
2023-09-24T14:20:20.584Z,18.49
2023-09-24T14:22:48.250Z,18.33
2023-09-24T14:25:17.470Z,18.32
2023-09-24T14:27:46.281Z,18.28
2023-09-24T14:30:14.706Z,18.30
2023-09-24T14:32:42.479Z,18.59
2023-09-24T14:35:10.614Z,21.15
2023-09-24T14:37:38.223Z,23.66
2023-09-24T14:40:07.060Z,24.25
2023-09-24T14:42:36.004Z,23.76
2023-09-24T14:45:05.198Z,22.84
2023-09-24T14:47:33.081Z,21.60
2023-09-24T14:50:01.852Z,21.09
2023-09-24T14:52:30.742Z,20.21
2023-09-24T14:54:58.481Z,20.98
2023-09-24T14:57:26.230Z,20.93
2023-09-24T14:59:55.215Z,19.99
2023-09-24T15:02:22.880Z,19.12
2023-09-24T15:04:51.899Z,18.80
2023-09-24T15:07:19.559Z,18.50
2023-09-24T15:09:47.280Z,18.13
2023-09-24T15:12:16.554Z,17.76
2023-09-24T15:14:44.260Z,17.66
2023-09-24T15:17:13.283Z,17.02
2023-09-24T15:19:40.885Z,16.89
2023-09-24T15:22:08.495Z,16.91
2023-09-24T15:24:36.199Z,16.99
2023-09-24T15:27:03.951Z,16.90
2023-09-24T15:29:31.726Z,17.13
2023-09-24T15:31:59.385Z,16.93
2023-09-24T15:34:29.053Z,16.89
2023-09-24T15:36:56.763Z,16.79
2023-09-24T15:39:24.406Z,16.81
2023-09-24T15:41:52.162Z,16.81
2023-09-24T15:44:19.818Z,16.61
2023-09-24T15:46:48.203Z,16.37
2023-09-24T15:49:15.877Z,16.42
2023-09-24T15:51:45.252Z,16.56
2023-09-24T15:54:13.515Z,16.52
2023-09-24T15:56:41.245Z,16.52
2023-09-24T15:59:08.900Z,16.54
2023-09-24T16:01:36.653Z,16.52
2023-09-24T16:04:04.408Z,16.21
2023-09-24T16:06:32.028Z,16.05
2023-09-24T16:09:01.014Z,15.99
2023-09-24T16:11:29.061Z,16.00
2023-09-24T16:13:56.755Z,16.10
2023-09-24T16:16:24.540Z,15.96
2023-09-24T16:18:54.999Z,15.74
2023-09-24T16:21:22.739Z,15.64
2023-09-24T16:23:50.707Z,15.51
2023-09-24T16:26:20.539Z,15.42
2023-09-24T16:28:48.176Z,15.36
2023-09-24T16:31:15.784Z,15.26
2023-09-24T16:33:43.457Z,15.14
2023-09-24T16:36:13.936Z,15.13
2023-09-24T16:38:41.710Z,15.00
2023-09-24T16:41:09.414Z,14.86
2023-09-24T16:43:38.375Z,14.68
2023-09-24T16:46:05.974Z,14.52
2023-09-24T16:48:33.759Z,14.39
2023-09-24T16:51:04.280Z,14.28
2023-09-24T16:53:32.985Z,14.08
2023-09-24T16:56:00.970Z,14.03
2023-09-24T16:58:28.867Z,13.89
2023-09-24T17:00:57.876Z,13.77
2023-09-24T17:03:25.694Z,13.62
2023-09-24T17:05:53.490Z,13.48
2023-09-24T17:08:21.277Z,13.29
2023-09-24T17:10:49.386Z,13.24
2023-09-24T17:13:17.236Z,13.15
2023-09-24T17:15:47.273Z,13.06
2023-09-24T17:18:16.623Z,12.93
2023-09-24T17:20:48.420Z,12.85
2023-09-24T17:23:16.391Z,12.77
2023-09-24T17:25:44.015Z,12.66
2023-09-24T17:28:12.326Z,12.57
2023-09-24T17:30:40.513Z,12.47
2023-09-24T17:33:08.270Z,12.36
2023-09-24T17:35:37.314Z,12.40
2023-09-24T17:38:05.530Z,12.35
2023-09-24T17:40:33.195Z,12.24
2023-09-24T17:43:01.030Z,12.16
2023-09-24T17:45:30.560Z,12.07
2023-09-24T17:47:58.375Z,11.95
2023-09-24T17:50:26.048Z,11.83
2023-09-24T17:52:55.018Z,11.72
2023-09-24T17:55:23.476Z,11.67
2023-09-24T17:57:51.105Z,11.64
2023-09-24T18:00:19.505Z,11.52
2023-09-24T18:02:47.284Z,11.52
2023-09-24T18:05:16.332Z,11.44
2023-09-24T18:07:43.979Z,11.36
2023-09-24T18:10:13.004Z,11.28
2023-09-24T18:12:40.622Z,11.23
2023-09-24T18:15:09.624Z,11.15
2023-09-24T18:17:37.265Z,11.07
2023-09-24T18:20:05.399Z,10.98
2023-09-24T18:22:33.057Z,10.93
2023-09-24T18:25:00.675Z,10.86
2023-09-24T18:27:34.023Z,10.83
2023-09-24T18:30:01.739Z,10.84
2023-09-24T18:32:29.696Z,10.89
2023-09-24T18:34:57.367Z,10.83
2023-09-24T18:37:25.022Z,10.81
2023-09-24T18:39:52.732Z,10.75
2023-09-24T18:42:20.420Z,10.67
2023-09-24T18:44:50.320Z,10.57
2023-09-24T18:47:19.793Z,10.51
2023-09-24T18:49:47.420Z,10.44
2023-09-24T18:52:15.040Z,10.37
2023-09-24T18:54:42.650Z,10.30
2023-09-24T18:57:10.312Z,10.21
2023-09-24T18:59:38.653Z,10.16
2023-09-24T19:02:08.019Z,10.12
2023-09-24T19:04:35.920Z,10.08
2023-09-24T19:07:04.302Z,10.04
2023-09-24T19:09:31.963Z,10.05
2023-09-24T19:11:59.646Z,10.01
2023-09-24T19:14:27.299Z,9.98
2023-09-24T19:16:55.306Z,9.96
2023-09-24T19:19:24.323Z,9.96
2023-09-24T19:21:51.999Z,9.94
2023-09-24T19:24:19.822Z,9.92
2023-09-24T19:26:48.906Z,9.91
2023-09-24T19:29:16.518Z,9.93
2023-09-24T19:31:44.146Z,10.03
2023-09-24T19:34:11.809Z,10.02
2023-09-24T19:36:42.241Z,10.04
2023-09-24T19:39:10.196Z,10.05
2023-09-24T19:41:37.983Z,9.98
2023-09-24T19:44:06.740Z,9.97
2023-09-24T19:46:34.571Z,9.90
2023-09-24T19:49:02.342Z,9.89
2023-09-24T19:51:30.048Z,9.84
2023-09-24T19:53:59.130Z,9.79
2023-09-24T19:56:26.793Z,9.73
2023-09-24T19:58:54.426Z,9.67
2023-09-24T20:01:22.107Z,9.67
2023-09-24T20:03:49.815Z,9.68
2023-09-24T20:06:17.524Z,9.65
2023-09-24T20:08:47.266Z,9.63
2023-09-24T20:11:16.619Z,9.57
2023-09-24T20:13:47.299Z,9.52
2023-09-24T20:16:15.081Z,9.34
2023-09-24T20:18:43.025Z,9.43
2023-09-24T20:21:10.811Z,9.38
2023-09-24T20:23:38.482Z,9.34
2023-09-24T20:26:06.862Z,9.32
2023-09-24T20:28:52.716Z,9.27
2023-09-24T20:31:21.372Z,9.34
2023-09-24T20:34:00.589Z,9.52
2023-09-24T20:36:28.873Z,9.79
2023-09-24T20:38:57.689Z,9.92
2023-09-24T20:41:25.392Z,10.09
2023-09-24T20:43:54.427Z,10.18
2023-09-24T20:46:23.369Z,10.31
2023-09-24T20:48:51.378Z,10.34
2023-09-24T20:51:19.389Z,10.39
2023-09-24T20:53:47.153Z,10.34
2023-09-24T20:56:14.812Z,10.36
2023-09-24T20:58:45.533Z,10.44
2023-09-24T21:01:14.721Z,10.45
2023-09-24T21:03:45.301Z,10.37
2023-09-24T21:06:13.766Z,10.41
2023-09-24T21:08:41.567Z,10.35
2023-09-24T21:11:09.199Z,10.34
2023-09-24T21:13:37.440Z,10.33
2023-09-24T21:16:08.556Z,10.27
2023-09-24T21:18:37.832Z,10.31
2023-09-24T21:21:05.613Z,10.27
2023-09-24T21:23:33.447Z,10.20
2023-09-24T21:26:02.691Z,10.10
2023-09-24T21:28:30.386Z,10.00
2023-09-24T21:31:06.062Z,9.84
2023-09-24T21:33:33.990Z,9.84
2023-09-24T21:36:04.355Z,9.80
2023-09-24T21:38:32.100Z,9.70
2023-09-24T21:40:59.923Z,9.63
2023-09-24T21:43:31.191Z,9.58
2023-09-24T21:45:59.860Z,9.45
2023-09-24T21:48:27.826Z,9.30
2023-09-24T21:50:55.942Z,9.15
2023-09-24T21:53:24.949Z,9.05
2023-09-24T21:55:52.830Z,8.96
2023-09-24T21:58:20.617Z,8.89
2023-09-24T22:00:48.391Z,8.85
2023-09-24T22:03:16.267Z,8.83
2023-09-24T22:05:45.478Z,8.71
2023-09-24T22:08:13.302Z,8.67
2023-09-24T22:10:42.614Z,8.71
2023-09-24T22:13:10.305Z,8.90
2023-09-24T22:15:37.954Z,8.95
2023-09-24T22:18:06.591Z,9.05
2023-09-24T22:20:35.392Z,9.03
2023-09-24T22:23:03.107Z,9.10
2023-09-24T22:25:31.873Z,9.20
2023-09-24T22:28:00.909Z,9.22
2023-09-24T22:30:28.616Z,9.31
2023-09-24T22:32:56.613Z,9.37
2023-09-24T22:35:24.638Z,9.19
2023-09-24T22:37:52.419Z,9.06
2023-09-24T22:40:20.114Z,8.87
2023-09-24T22:42:47.745Z,8.69
2023-09-24T22:45:18.968Z,8.57
2023-09-24T22:47:47.197Z,8.40
2023-09-24T22:50:16.082Z,8.36
2023-09-24T22:52:43.745Z,8.36
2023-09-24T22:55:12.222Z,8.32
2023-09-24T22:57:40.511Z,8.23
2023-09-24T23:00:13.551Z,8.20
2023-09-24T23:02:42.638Z,8.16
2023-09-24T23:05:13.410Z,8.17
2023-09-24T23:07:41.079Z,8.15
2023-09-24T23:10:10.634Z,8.08
2023-09-24T23:12:38.379Z,7.99
2023-09-24T23:15:06.870Z,7.78
2023-09-24T23:17:34.759Z,7.86
2023-09-24T23:20:05.215Z,7.82
2023-09-24T23:22:32.897Z,7.84
2023-09-24T23:25:00.484Z,7.91
2023-09-24T23:27:28.192Z,7.89
2023-09-24T23:29:55.836Z,7.94
2023-09-24T23:32:23.464Z,8.00
2023-09-24T23:34:52.953Z,8.05
2023-09-24T23:37:22.190Z,8.05
2023-09-24T23:39:49.907Z,8.02
2023-09-24T23:42:17.893Z,8.02
2023-09-24T23:44:45.662Z,7.98
2023-09-24T23:47:13.475Z,7.92
2023-09-24T23:49:41.077Z,7.86
2023-09-24T23:52:08.766Z,7.86
2023-09-24T23:54:38.184Z,7.86
2023-09-24T23:57:06.479Z,7.80
2023-09-24T23:59:34.196Z,7.79
